createdAt,value
2024-02-24T00:05:20.515Z,34.9
2024-02-24T00:10:59.372Z,34.8
2024-02-24T00:16:38.421Z,34.8
2024-02-24T00:22:18.325Z,34.8
2024-02-24T00:27:57.573Z,34.7
2024-02-24T00:33:36.425Z,34.6
2024-02-24T00:39:00.395Z,34.6
2024-02-24T00:44:39.109Z,34.5
2024-02-24T00:50:18.311Z,34.5
2024-02-24T00:55:41.825Z,34.4
2024-02-24T01:01:20.790Z,34.4
2024-02-24T01:06:59.849Z,34.3
2024-02-24T01:12:39.127Z,34.3
2024-02-24T01:18:02.591Z,34.2
2024-02-24T01:23:42.058Z,34.2
2024-02-24T01:29:20.576Z,34.1
2024-02-24T01:34:59.989Z,34.1
2024-02-24T01:40:38.319Z,34
2024-02-24T01:46:16.706Z,34
2024-02-24T01:51:56.199Z,33.9
2024-02-24T01:57:34.581Z,33.9
2024-02-24T02:02:58.332Z,33.9
2024-02-24T02:08:22.215Z,33.8
2024-02-24T02:14:02.341Z,33.8
2024-02-24T02:19:10.315Z,33.7
2024-02-24T02:24:34.037Z,33.7
2024-02-24T02:29:57.015Z,33.6
2024-02-24T02:35:38.171Z,33.6
2024-02-24T02:41:16.713Z,33.6
2024-02-24T02:46:55.501Z,33.5
2024-02-24T02:52:43.337Z,33.4
2024-02-24T02:58:22.561Z,33.4
2024-02-24T03:04:01.773Z,33.4
2024-02-24T03:14:37.061Z,33.3
2024-02-24T03:19:45.297Z,33.3
2024-02-24T03:25:23.944Z,33.2
2024-02-24T03:31:02.545Z,33.1
2024-02-24T03:36:41.993Z,33.1
2024-02-24T03:42:20.568Z,33.1
2024-02-24T03:47:43.901Z,33.1
2024-02-24T03:53:07.948Z,33
2024-02-24T03:58:47.017Z,32.9
2024-02-24T04:04:25.560Z,32.9
2024-02-24T04:10:05.170Z,32.9
2024-02-24T04:15:44.539Z,32.8
2024-02-24T04:21:24.147Z,32.8
2024-02-24T04:27:02.676Z,32.8
2024-02-24T04:32:41.188Z,32.8
2024-02-24T04:38:21.080Z,32.7
2024-02-24T04:43:44.384Z,32.6
2024-02-24T04:49:08.743Z,32.6
2024-02-24T04:54:31.703Z,32.6
2024-02-24T04:59:54.813Z,32.5
2024-02-24T05:05:18.174Z,32.4
2024-02-24T05:10:42.318Z,32.4
2024-02-24T05:16:05.600Z,32.4
2024-02-24T05:26:40.192Z,32.4
2024-02-24T05:32:03.183Z,32.3
2024-02-24T05:37:31.584Z,32.3
2024-02-24T05:42:56.470Z,32.3
2024-02-24T05:48:19.879Z,32.2
2024-02-24T05:54:01.903Z,32.2
2024-02-24T05:59:39.927Z,32.1
2024-02-24T06:05:18.999Z,32.1
2024-02-24T06:10:58.532Z,32.1
2024-02-24T06:16:37.313Z,32
2024-02-24T06:22:19.570Z,31.9
2024-02-24T06:27:42.470Z,31.9
2024-02-24T06:33:21.042Z,31.9
2024-02-24T06:39:00.375Z,31.9
2024-02-24T06:44:50.449Z,32.8
2024-02-24T06:50:46.227Z,26.3
2024-02-24T06:56:09.025Z,35.5
2024-02-24T07:01:50.424Z,37.2
2024-02-24T07:07:29.997Z,38.1
2024-02-24T07:13:10.136Z,37.9
2024-02-24T07:18:49.088Z,37.1
2024-02-24T07:24:29.270Z,35.7
2024-02-24T07:30:11.012Z,34.7
2024-02-24T07:35:52.423Z,34.3
2024-02-24T07:41:02.211Z,34.1
2024-02-24T07:46:40.561Z,34.1
2024-02-24T07:52:04.653Z,36.8
2024-02-24T07:57:43.049Z,37.2
2024-02-24T08:03:23.230Z,41.9
2024-02-24T08:09:02.821Z,44
2024-02-24T08:14:27.810Z,45.6
2024-02-24T08:20:07.400Z,46.6
2024-02-24T08:25:30.353Z,47.9
2024-02-24T08:31:08.900Z,48.3
2024-02-24T08:36:48.944Z,46.9
2024-02-24T08:42:12.366Z,46.7
2024-02-24T08:47:35.333Z,44.9
2024-02-24T08:53:28.266Z,45.1
2024-02-24T08:59:06.911Z,45.6
2024-02-24T09:04:47.861Z,45.7
2024-02-24T09:10:27.678Z,45.1
2024-02-24T09:16:06.903Z,50
2024-02-24T09:21:30.989Z,53
2024-02-24T09:27:09.964Z,54.5
2024-02-24T09:32:48.401Z,55.4
2024-02-24T09:38:28.140Z,55.9
2024-02-24T09:43:51.669Z,56.1
2024-02-24T09:49:31.110Z,56.2
2024-02-24T09:55:11.849Z,55.2
2024-02-24T10:00:34.764Z,56.3
2024-02-24T10:06:14.484Z,56
2024-02-24T10:11:42.142Z,55.6
2024-02-24T10:17:05.586Z,55
2024-02-24T10:22:14.146Z,54.5
2024-02-24T10:27:55.258Z,53.5
2024-02-24T10:33:38.028Z,52.9
2024-02-24T10:40:02.157Z,52.5
2024-02-24T10:45:41.605Z,51.6
2024-02-24T10:51:21.575Z,50.9
2024-02-24T10:57:01.194Z,50.1
2024-02-24T11:02:24.776Z,49.4
2024-02-24T11:08:05.377Z,48.8
2024-02-24T11:13:29.323Z,48.3
2024-02-24T11:19:23.280Z,47.6
2024-02-24T11:24:46.442Z,47.2
2024-02-24T11:30:25.168Z,46.6
2024-02-24T11:36:05.338Z,45.9
2024-02-24T11:41:44.673Z,45.4
2024-02-24T11:47:23.348Z,44.9
2024-02-24T11:53:06.175Z,44.4
2024-02-24T11:58:45.587Z,43.8
2024-02-24T12:04:24.453Z,43.2
2024-02-24T12:09:33.311Z,42.6
2024-02-24T12:15:14.624Z,42.3
2024-02-24T12:20:55.572Z,41.9
2024-02-24T12:26:34.005Z,41.6
2024-02-24T12:32:12.670Z,39.6
2024-02-24T12:37:52.361Z,38.1
2024-02-24T12:43:31.457Z,37.2
2024-02-24T12:49:19.870Z,36.6
2024-02-24T12:54:58.991Z,36
2024-02-24T13:00:40.438Z,35.6
2024-02-24T13:06:19.788Z,35.3
2024-02-24T13:11:59.745Z,35
2024-02-24T13:17:38.737Z,34.8
2024-02-24T13:23:02.718Z,34.6
2024-02-24T13:28:44.213Z,34.4
2024-02-24T13:34:08.247Z,34.3
2024-02-24T13:39:47.110Z,34.2
2024-02-24T13:45:25.410Z,34.1
2024-02-24T13:51:05.813Z,34
2024-02-24T13:56:44.402Z,33.9
2024-02-24T14:02:24.025Z,33.8
2024-02-24T14:08:04.738Z,33.7
2024-02-24T14:13:46.935Z,33.6
2024-02-24T14:19:27.225Z,33.4
2024-02-24T14:25:18.138Z,33.3
2024-02-24T14:31:12.366Z,33.3
2024-02-24T14:36:54.319Z,33.1
2024-02-24T14:42:34.322Z,33.1
2024-02-24T14:48:13.436Z,32.9
2024-02-24T14:53:52.552Z,32.9
2024-02-24T14:59:02.192Z,32.8
2024-02-24T15:04:52.023Z,32.7
2024-02-24T15:10:31.866Z,32.6
2024-02-24T15:16:18.030Z,32.6
2024-02-24T15:21:43.541Z,32.5
2024-02-24T15:27:26.809Z,32.4
2024-02-24T15:33:05.910Z,32.4
2024-02-24T15:38:45.422Z,32.3
2024-02-24T15:44:23.324Z,32.3
2024-02-24T15:50:03.963Z,32.2
2024-02-24T15:55:42.777Z,32.1
2024-02-24T16:01:22.030Z,32.1
2024-02-24T16:07:03.947Z,32.1
2024-02-24T16:12:45.209Z,32
2024-02-24T16:18:24.383Z,31.9
2024-02-24T16:24:06.084Z,31.9
2024-02-24T16:29:44.461Z,31.9
2024-02-24T16:35:12.786Z,31.8
2024-02-24T16:40:51.537Z,31.8
2024-02-24T16:46:30.563Z,31.8
2024-02-24T16:52:11.293Z,31.7
2024-02-24T16:57:35.198Z,31.7
2024-02-24T17:03:14.199Z,31.6
2024-02-24T17:08:38.314Z,31.6
2024-02-24T17:14:02.574Z,31.6
2024-02-24T17:19:33.891Z,31.6
2024-02-24T17:25:13.677Z,31.5
2024-02-24T17:30:52.738Z,31.4
2024-02-24T17:36:32.543Z,31.4
2024-02-24T17:41:56.104Z,31.4
2024-02-24T17:47:34.667Z,31.4
2024-02-24T17:53:14.046Z,31.3
2024-02-24T17:58:48.862Z,31.3
2024-02-24T18:04:28.351Z,31.3
2024-02-24T18:10:07.887Z,31.3
2024-02-24T18:15:15.400Z,31.2
2024-02-24T18:20:42.271Z,31.2
2024-02-24T18:26:23.910Z,31.2
2024-02-24T18:31:31.701Z,31.1
2024-02-24T18:37:11.592Z,31.1
2024-02-24T18:48:17.755Z,31.1
2024-02-24T18:53:57.725Z,31
2024-02-24T18:59:36.311Z,31
2024-02-24T19:05:15.573Z,30.9
2024-02-24T19:10:23.320Z,30.9
2024-02-24T19:16:05.394Z,30.9
2024-02-24T19:21:31.807Z,30.9
2024-02-24T19:27:12.596Z,30.9
2024-02-24T19:32:51.299Z,30.8
2024-02-24T19:38:30.598Z,30.8
2024-02-24T19:44:28.320Z,30.8
2024-02-24T19:50:08.353Z,30.8
2024-02-24T19:55:47.086Z,30.8
2024-02-24T20:01:33.940Z,30.8
2024-02-24T20:07:14.116Z,30.7
2024-02-24T20:12:53.411Z,30.7
2024-02-24T20:18:16.454Z,30.6
2024-02-24T20:23:56.161Z,30.6
2024-02-24T20:29:35.628Z,30.6
2024-02-24T20:35:24.187Z,30.6
2024-02-24T20:40:47.685Z,30.6
2024-02-24T20:46:26.703Z,30.5
2024-02-24T20:52:06.014Z,30.5
2024-02-24T20:57:29.309Z,30.5
2024-02-24T21:03:09.506Z,30.4
2024-02-24T21:08:50.997Z,30.4
2024-02-24T21:14:30.355Z,30.4
2024-02-24T21:20:13.793Z,30.4
2024-02-24T21:25:52.465Z,30.3
2024-02-24T21:31:31.471Z,30.4
2024-02-24T21:37:15.637Z,30.3
2024-02-24T21:42:53.579Z,30.3
2024-02-24T21:48:33.102Z,30.3
2024-02-24T21:54:12.824Z,30.3
2024-02-24T21:59:51.803Z,30.3
2024-02-24T22:05:31.261Z,30.2
2024-02-24T22:11:10.930Z,30.2
2024-02-24T22:16:49.754Z,30.2
2024-02-24T22:22:32.574Z,30.1
2024-02-24T22:28:14.151Z,30.1
2024-02-24T22:34:07.736Z,30.1
2024-02-24T22:45:11.844Z,30.1
2024-02-24T22:50:52.156Z,30.1
2024-02-24T22:56:19.155Z,30
2024-02-24T23:01:42.724Z,30
2024-02-24T23:07:06.797Z,30
2024-02-24T23:12:40.455Z,29.9
2024-02-24T23:18:04.561Z,29.9
2024-02-24T23:23:43.981Z,29.9
2024-02-24T23:29:22.615Z,29.9
2024-02-24T23:35:02.717Z,29.9
2024-02-24T23:40:43.037Z,29.9
2024-02-24T23:46:26.398Z,29.9
2024-02-24T23:52:05.798Z,29.8
2024-02-24T23:57:44.270Z,29.8
